Time;durP1;ratioP1;P1;durP2;ratioP2;P2;SDS_P1;SDS_P2;PMS_P1;PMS_P2;Temp;Humidity;BMP_temperature;BMP_pressure;BME280_temperature;BME280_humidity;BME280_pressure;Samples;Min_cycle;Max_cycle;Signal;HPM_P1;HPM_P2
2022/06/20 00:01:01;;;;;;;61.55;36.40;;;;;;;17.59;100.00;96067.97;10452280;28;20237;-56
2022/06/20 00:06:01;;;;;;;60.92;35.80;;;;;;;17.65;100.00;96050.41;10451442;28;20322;-54
2022/06/20 00:11:02;;;;;;;57.38;33.92;;;;;;;17.60;100.00;96047.63;10451874;28;20709;-53
2022/06/20 00:16:02;;;;;;;55.55;34.45;;;;;;;17.50;100.00;96049.94;10433937;28;20294;-52
2022/06/20 00:21:03;;;;;;;50.90;33.50;;;;;;;17.41;100.00;96066.09;10457553;28;20183;-55
2022/06/20 00:26:03;;;;;;;48.25;32.15;;;;;;;17.40;100.00;96074.25;10459639;28;20214;-55
2022/06/20 00:31:04;;;;;;;54.60;34.65;;;;;;;17.23;100.00;96066.84;10441263;28;20277;-56
2022/06/20 00:36:04;;;;;;;50.53;33.70;;;;;;;17.22;100.00;96099.63;10459248;28;20207;-53
2022/06/20 00:41:08;;;;;;;52.30;32.35;;;;;;;17.18;100.00;96114.31;10458781;28;20226;-57
2022/06/20 00:46:17;;;;;;;57.35;33.10;;;;;;;17.19;100.00;96123.88;10458598;28;20219;-56
2022/06/20 00:51:44;;;;;;;46.95;30.55;;;;;;;17.29;100.00;96126.06;10440426;28;20212;-53
2022/06/20 00:56:54;;;;;;;42.25;24.33;;;;;;;17.57;100.00;96135.44;10440397;28;20216;-57
2022/06/20 01:01:55;;;;;;;42.35;20.85;;;;;;;17.63;100.00;96132.75;10439366;28;20274;-56
2022/06/20 01:06:57;;;;;;;28.33;18.77;;;;;;;17.81;100.00;96110.81;10457553;28;20666;-55
2022/06/20 01:12:02;;;;;;;30.63;16.45;;;;;;;17.93;100.00;96115.41;10457786;28;20214;-54
2022/06/20 01:17:07;;;;;;;26.02;15.43;;;;;;;17.91;100.00;96102.38;10457284;28;20559;-56
2022/06/20 01:22:38;;;;;;;16.80;7.72;;;;;;;17.79;100.00;96088.19;10440007;28;20192;-52
2022/06/20 01:27:41;;;;;;;17.75;6.72;;;;;;;17.60;100.00;96088.16;10439070;28;20246;-53
2022/06/20 01:32:42;;;;;;;14.95;5.63;;;;;;;17.54;100.00;96080.25;10438656;28;20230;-56
2022/06/20 01:37:43;;;;;;;10.07;5.32;;;;;;;17.39;100.00;96064.69;10438586;28;20219;-54
2022/06/20 01:42:43;;;;;;;12.40;6.20;;;;;;;17.17;100.00;96056.31;10456685;28;20573;-54
2022/06/20 01:47:43;;;;;;;12.25;5.20;;;;;;;17.09;100.00;96060.81;10456242;28;20220;-54
2022/06/20 01:52:44;;;;;;;13.80;5.38;;;;;;;16.99;100.00;96057.03;10455773;28;20190;-55
2022/06/20 01:57:46;;;;;;;10.75;5.13;;;;;;;16.93;100.00;96058.69;10456192;28;20199;-56
2022/06/20 02:02:51;;;;;;;14.90;6.78;;;;;;;16.76;100.00;96035.34;10455602;28;20637;-53
2022/06/20 02:07:54;;;;;;;14.95;5.63;;;;;;;16.66;100.00;96021.78;10455414;28;20752;-55
2022/06/20 02:12:56;;;;;;;11.80;6.10;;;;;;;16.57;100.00;96007.19;10455556;28;20220;-55
2022/06/20 02:17:57;;;;;;;11.75;5.70;;;;;;;16.05;100.00;95991.34;10437190;28;20763;-51
2022/06/20 02:22:59;;;;;;;14.48;6.35;;;;;;;16.20;100.00;95986.59;10455303;28;20192;-52
2022/06/20 02:28:05;;;;;;;16.15;6.93;;;;;;;16.16;100.00;95995.97;10454298;28;20694;-55
2022/06/20 02:33:15;;;;;;;19.38;6.30;;;;;;;16.28;100.00;95987.38;10436992;28;20191;-51
2022/06/20 02:38:16;;;;;;;10.73;5.72;;;;;;;16.24;100.00;95989.63;10436512;28;20599;-52
2022/06/20 02:43:42;;;;;;;13.38;6.03;;;;;;;16.05;100.00;95984.22;10454183;28;20192;-50
2022/06/20 02:48:46;;;;;;;15.68;6.45;;;;;;;16.09;100.00;95986.44;10429948;28;20234;-53
2022/06/20 02:53:49;;;;;;;13.75;5.68;;;;;;;16.08;100.00;96016.53;10435698;28;20211;-51
2022/06/20 02:58:52;;;;;;;12.48;5.10;;;;;;;16.00;100.00;96028.97;10435677;28;20188;-55
2022/06/20 03:03:54;;;;;;;13.75;5.97;;;;;;;15.94;100.00;96036.88;10436477;28;20267;-52
2022/06/20 03:08:55;;;;;;;11.25;6.00;;;;;;;15.96;100.00;96030.38;10453126;28;20218;-52
2022/06/20 03:13:57;;;;;;;10.75;5.70;;;;;;;16.04;100.00;96024.06;10453060;28;20220;-55
2022/06/20 03:19:00;;;;;;;19.83;6.82;;;;;;;15.97;100.00;96008.25;10452927;28;20187;-53
2022/06/20 03:24:01;;;;;;;15.20;7.43;;;;;;;15.38;100.00;95993.28;10434688;28;20212;-52
2022/06/20 03:29:02;;;;;;;15.15;7.53;;;;;;;15.14;100.00;95998.16;10435081;28;20705;-50
2022/06/20 03:34:02;;;;;;;13.13;7.63;;;;;;;15.46;100.00;95980.66;10452444;28;20298;-54
2022/06/20 03:39:05;;;;;;;12.60;7.75;;;;;;;15.53;100.00;95985.97;10452352;28;20191;-52
2022/06/20 03:44:10;;;;;;;18.00;8.48;;;;;;;15.60;100.00;95985.94;10452413;28;20218;-50
2022/06/20 03:49:16;;;;;;;16.15;6.97;;;;;;;15.83;100.00;95985.50;10434230;28;20273;-54
2022/06/20 03:54:26;;;;;;;16.83;7.75;;;;;;;16.00;100.00;95977.94;10457536;28;20212;-51
2022/06/20 03:59:41;;;;;;;17.85;7.75;;;;;;;16.29;100.00;95958.09;10448113;28;20191;-53
2022/06/20 04:04:56;;;;;;;18.83;7.70;;;;;;;16.27;100.00;95949.56;10465502;28;20713;-49
2022/06/20 04:15:42;;;;;;;16.30;8.20;;;;;;;17.01;100.00;95981.69;10465396;28;20207;-55
2022/06/20 04:20:53;;;;;;;17.63;8.00;;;;;;;17.54;100.00;95969.03;10447581;28;20241;-51
2022/06/20 04:25:57;;;;;;;17.38;7.85;;;;;;;17.90;100.00;95970.09;10447597;28;20219;-50
2022/06/20 04:31:04;;;;;;;13.82;7.15;;;;;;;18.56;100.00;95976.44;10465305;28;20212;-54
2022/06/20 04:36:30;;;;;;;19.13;8.77;;;;;;;18.95;100.00;95962.84;10465250;28;20239;-52
2022/06/20 04:41:49;;;;;;;15.35;7.35;;;;;;;19.29;100.00;95942.66;10439941;28;20407;-57
2022/06/20 04:47:04;;;;;;;19.15;7.95;;;;;;;19.21;100.00;95919.91;10464985;28;20215;-55
2022/06/20 04:52:07;;;;;;;18.95;7.22;;;;;;;19.40;100.00;95903.88;10464462;28;20563;-56
2022/06/20 04:57:10;;;;;;;17.63;7.00;;;;;;;19.34;100.00;95872.91;10464691;28;20220;-53
2022/06/20 05:02:18;;;;;;;20.05;7.00;;;;;;;19.44;100.00;95849.25;10464632;28;20658;-53
2022/06/20 05:07:23;;;;;;;14.23;6.07;;;;;;;18.95;100.00;95838.09;10458418;28;20758;-57
2022/06/20 05:12:43;;;;;;;17.45;6.80;;;;;;;19.09;99.94;95812.91;10457822;28;20384;-55
2022/06/20 05:17:45;;;;;;;13.27;6.40;;;;;;;19.64;96.98;95814.31;10457867;28;20207;-55
2022/06/20 05:22:50;;;;;;;10.90;6.00;;;;;;;20.22;93.07;95817.00;10457155;28;20633;-54
2022/06/20 05:27:56;;;;;;;13.82;5.95;;;;;;;20.70;89.40;95812.19;10457118;28;20687;-57
2022/06/20 05:33:01;;;;;;;16.92;6.50;;;;;;;21.28;85.00;95802.09;10439345;28;20196;-53
2022/06/20 05:38:11;;;;;;;15.85;5.80;;;;;;;21.47;85.19;95779.44;10456836;28;20216;-55
2022/06/20 05:43:21;;;;;;;12.93;5.38;;;;;;;21.81;82.12;95781.97;10439059;28;20279;-57
2022/06/20 05:48:33;;;;;;;14.70;5.95;;;;;;;21.96;80.24;95765.31;10456958;28;20216;-58
2022/06/20 05:53:44;;;;;;;10.50;5.22;;;;;;;22.27;81.94;95770.91;10430622;28;20208;-53
2022/06/20 05:58:45;;;;;;;14.70;5.75;;;;;;;22.67;78.70;95758.97;10438631;28;20226;-55
2022/06/20 06:04:04;;;;;;;19.90;6.53;;;;;;;22.47;80.03;95764.97;10438198;28;20326;-53
2022/06/20 06:09:28;;;;;;;10.50;6.43;;;;;;;22.64;78.66;95754.13;10454355;28;20559;-53
2022/06/20 06:14:39;;;;;;;19.08;11.00;;;;;;;22.89;79.14;95788.19;10494690;28;20225;-54
2022/06/20 06:19:43;;;;;;;30.83;8.77;;;;;;;22.73;79.73;95823.91;10478848;28;20194;-58
2022/06/20 06:24:45;;;;;;;9.80;5.70;;;;;;;23.02;78.60;95808.31;10478591;28;20611;-54
2022/06/20 06:29:50;;;;;;;13.23;6.40;;;;;;;22.61;78.14;95907.63;10495922;28;20689;-53
2022/06/20 06:35:06;;;;;;;17.45;5.47;;;;;;;21.87;78.72;95934.81;10495230;28;20215;-51
2022/06/20 06:40:18;;;;;;;11.50;6.03;;;;;;;21.46;77.04;95916.38;10495929;28;20195;-51
2022/06/20 06:45:22;;;;;;;12.02;5.25;;;;;;;21.33;77.44;95930.03;10491564;28;20211;-54
2022/06/20 06:50:40;;;;;;;14.85;6.03;;;;;;;20.18;79.83;95983.38;10491614;28;20218;-55
2022/06/20 06:55:43;;;;;;;13.40;5.28;;;;;;;19.43;84.54;96018.44;10474117;28;20664;-56
2022/06/20 07:00:48;;;;;;;10.70;4.90;;;;;;;18.90;86.88;96019.25;10472304;28;20195;-56
2022/06/20 07:05:58;;;;;;;21.10;5.43;;;;;;;18.51;88.06;96032.00;10473256;28;20322;-52
2022/06/20 07:11:05;;;;;;;11.35;4.50;;;;;;;18.54;90.39;96008.50;10473241;28;20685;-51
2022/06/20 07:16:16;;;;;;;13.40;4.85;;;;;;;18.89;86.70;96007.81;10482252;28;20268;-51
2022/06/20 07:21:18;;;;;;;12.27;5.15;;;;;;;18.91;86.19;96025.38;10505579;28;20277;-51
2022/06/20 07:26:21;;;;;;;12.55;5.10;;;;;;;18.33;89.81;96033.63;10534746;28;20623;-52
2022/06/20 07:31:28;;;;;;;19.60;6.65;;;;;;;18.27;92.21;96023.09;10533524;28;20254;-50
2022/06/20 07:36:33;;;;;;;9.52;5.57;;;;;;;18.11;90.91;96024.50;10477392;28;20215;-54
2022/06/20 07:41:39;;;;;;;15.20;5.50;;;;;;;18.78;89.21;96018.38;10493427;28;20658;-59
2022/06/20 07:46:51;;;;;;;9.40;6.15;;;;;;;18.66;89.08;96028.94;10473937;28;20215;-56
2022/06/20 07:51:55;;;;;;;11.18;5.45;;;;;;;18.98;86.51;96018.13;10474173;28;20199;-58
2022/06/20 07:57:04;;;;;;;12.70;5.95;;;;;;;19.27;83.07;95992.56;10491640;28;20589;-56
2022/06/20 08:02:22;;;;;;;14.10;6.55;;;;;;;19.09;85.32;95992.66;10492346;28;20194;-58
2022/06/20 08:07:22;;;;;;;14.90;6.78;;;;;;;18.99;85.20;96001.16;10472348;28;20241;-57
2022/06/20 08:12:24;;;;;;;20.27;7.03;;;;;;;18.07;90.02;96041.88;10507469;28;20209;-54
2022/06/20 08:17:25;;;;;;;16.90;8.15;;;;;;;17.78;92.79;96047.66;10512132;28;20199;-54
2022/06/20 08:22:35;;;;;;;16.83;8.00;;;;;;;17.74;94.35;96051.75;10472838;28;20214;-54
2022/06/20 08:27:48;;;;;;;16.55;8.75;;;;;;;17.64;94.04;96017.00;10508083;28;20283;-53
2022/06/20 08:33:13;;;;;;;15.95;9.25;;;;;;;17.94;93.28;96042.84;10532923;28;20552;-52
2022/06/20 08:38:33;;;;;;;21.08;9.02;;;;;;;18.17;91.40;96019.13;10497073;28;20203;-53
2022/06/20 08:44:00;;;;;;;14.25;9.20;;;;;;;18.66;89.28;95973.22;10481280;28;20280;-53
2022/06/20 08:49:25;;;;;;;18.00;10.13;;;;;;;17.93;91.41;95994.34;10498487;28;20234;-51
2022/06/20 08:54:54;;;;;;;15.95;9.02;;;;;;;19.39;85.30;95958.84;10480114;28;20591;-55
2022/06/20 09:00:07;;;;;;;20.02;9.43;;;;;;;20.15;80.24;95947.44;10493639;28;20197;-52
2022/06/20 09:05:42;;;;;;;19.08;11.07;;;;;;;18.69;87.20;96007.28;10498407;28;20239;-53
2022/06/20 09:11:10;;;;;;;21.20;9.13;;;;;;;20.23;81.22;95954.22;10478638;28;20226;-51
2022/06/20 09:16:20;;;;;;;18.48;10.52;;;;;;;19.50;82.10;95962.53;10497623;28;20294;-51
2022/06/20 09:21:46;;;;;;;20.55;10.88;;;;;;;19.42;82.03;95966.34;10497587;28;20198;-53
2022/06/20 09:26:54;;;;;;;19.35;9.57;;;;;;;20.48;80.88;95948.59;10497444;28;20242;-51
2022/06/20 09:32:06;;;;;;;23.95;12.25;;;;;;;20.90;78.38;95921.66;10497465;28;20202;-52
2022/06/20 09:37:19;;;;;;;25.17;11.77;;;;;;;22.17;72.13;95910.34;10496411;28;20268;-54
2022/06/20 09:42:28;;;;;;;21.67;14.25;;;;;;;21.36;73.18;95929.53;10495587;28;20677;-53
2022/06/20 09:47:32;;;;;;;23.65;14.65;;;;;;;22.36;72.67;95950.88;10478375;28;20273;-51
2022/06/20 09:52:56;;;;;;;22.63;14.68;;;;;;;22.85;69.30;95904.63;10495666;28;20240;-56
2022/06/20 09:58:11;;;;;;;25.17;15.75;;;;;;;23.37;67.19;95856.91;10474107;28;20222;-52
2022/06/20 10:03:31;;;;;;;25.50;15.55;;;;;;;23.40;66.47;95878.59;10538013;28;20183;-55
2022/06/20 10:08:57;;;;;;;29.27;19.02;;;;;;;22.14;71.23;95934.84;10519101;28;20225;-53
2022/06/20 10:14:05;;;;;;;27.45;15.18;;;;;;;21.89;72.40;95925.50;10523752;28;20218;-55
2022/06/20 10:19:16;;;;;;;25.40;14.25;;;;;;;22.21;72.55;95942.69;10495735;28;20271;-57
2022/06/20 10:24:27;;;;;;;21.88;13.30;;;;;;;22.15;72.88;95943.69;10495163;28;20222;-55
2022/06/20 10:29:58;;;;;;;23.65;12.38;;;;;;;22.58;69.78;95923.34;10494717;28;20261;-57
2022/06/20 10:35:14;;;;;;;22.98;12.50;;;;;;;22.20;70.57;95955.19;10493932;28;20218;-55
2022/06/20 10:40:24;;;;;;;19.90;12.32;;;;;;;22.46;70.41;95958.19;10494323;28;20198;-57
2022/06/20 10:45:50;;;;;;;23.60;13.32;;;;;;;21.84;72.78;95981.44;10474757;28;20285;-55
2022/06/20 10:51:01;;;;;;;22.23;12.30;;;;;;;21.50;73.66;95981.50;10478886;28;20251;-54
2022/06/20 10:56:26;;;;;;;19.58;11.85;;;;;;;20.67;75.99;96032.56;10472903;28;20216;-56
2022/06/20 11:01:38;;;;;;;23.25;12.05;;;;;;;21.10;75.72;96006.41;10468009;28;20199;-57
2022/06/20 11:06:56;;;;;;;31.88;16.83;;;;;;;19.36;81.56;96052.25;10454829;28;20238;-52
2022/06/20 11:11:58;;;;;;;25.10;12.38;;;;;;;20.67;78.84;96029.06;10453200;28;20701;-53
2022/06/20 11:17:26;;;;;;;33.25;14.27;;;;;;;20.73;76.18;96019.31;10465683;28;20222;-54
2022/06/20 11:22:38;;;;;;;23.50;12.30;;;;;;;21.20;74.81;96013.75;10469203;28;20188;-54
2022/06/20 11:27:49;;;;;;;24.80;12.27;;;;;;;21.56;73.45;96022.34;10446983;28;20299;-54
2022/06/20 11:33:08;;;;;;;19.17;6.97;;;;;;;21.41;76.72;96046.88;10444547;28;20204;-51
2022/06/20 11:38:32;;;;;;;13.95;7.85;;;;;;;21.04;77.95;96044.63;10449135;28;20215;-55
2022/06/20 11:44:06;;;;;;;8.70;6.43;;;;;;;20.61;80.75;96075.22;10448699;28;20218;-58
2022/06/20 11:49:10;;;;;;;15.68;8.40;;;;;;;19.70;84.23;96107.53;10433652;28;20211;-54
2022/06/20 11:54:36;;;;;;;17.23;8.85;;;;;;;19.47;86.80;96106.44;10472482;28;20242;-51
2022/06/20 11:59:44;;;;;;;13.48;9.48;;;;;;;18.70;92.87;96142.38;10490380;28;20649;-50
2022/06/20 12:04:53;;;;;;;17.95;12.80;;;;;;;18.20;98.18;96160.25;10471673;28;20717;-56
2022/06/20 12:10:00;;;;;;;23.85;16.50;;;;;;;17.35;100.00;96177.34;10490244;28;20250;-50
2022/06/20 12:15:19;;;;;;;27.17;17.63;;;;;;;17.20;100.00;96190.88;10474418;28;20211;-50
2022/06/20 12:26:00;;;;;;;13.38;8.90;;;;;;;16.54;100.00;96214.66;10480249;28;20211;-51
2022/06/20 12:31:20;;;;;;;11.02;6.57;;;;;;;16.45;100.00;96207.13;10497290;28;20227;-51
2022/06/20 12:36:39;;;;;;;9.70;6.85;;;;;;;16.07;100.00;96226.28;10496899;28;20218;-51
2022/06/20 12:41:43;;;;;;;7.90;5.05;;;;;;;15.86;100.00;96236.03;10494173;28;20225;-51
2022/06/20 12:46:57;;;;;;;5.22;4.18;;;;;;;15.68;100.00;96216.28;10496286;28;20211;-50
2022/06/20 12:52:18;;;;;;;3.53;3.20;;;;;;;15.60;100.00;96220.91;10479140;28;20219;-50
2022/06/20 12:57:50;;;;;;;3.45;2.80;;;;;;;15.80;100.00;96237.66;10470082;28;20250;-55
2022/06/20 13:03:00;;;;;;;3.15;2.92;;;;;;;15.62;100.00;96246.13;10477399;28;20656;-50
2022/06/20 13:08:26;;;;;;;3.20;2.90;;;;;;;15.47;100.00;96233.06;10476659;28;20581;-49
2022/06/20 13:13:58;;;;;;;3.42;2.83;;;;;;;15.40;100.00;96247.28;10494996;28;20196;-51
2022/06/20 13:19:13;;;;;;;6.28;3.20;;;;;;;15.16;100.00;96258.16;10494780;28;20270;-57
2022/06/20 13:24:33;;;;;;;2.50;2.30;;;;;;;14.95;100.00;96268.81;10476796;28;20225;-55
2022/06/20 13:29:47;;;;;;;2.30;2.10;;;;;;;14.91;100.00;96263.09;10491432;28;20215;-56
2022/06/20 13:34:58;;;;;;;2.05;1.90;;;;;;;14.68;100.00;96266.00;10492894;28;20333;-53
2022/06/20 13:40:33;;;;;;;1.90;1.80;;;;;;;14.66;100.00;96270.66;10476367;28;20268;-58
2022/06/20 13:45:41;;;;;;;1.80;1.70;;;;;;;14.67;100.00;96282.84;10493702;28;20766;-52
2022/06/20 13:51:05;;;;;;;2.03;1.90;;;;;;;14.65;100.00;96284.03;10493487;28;20655;-54
2022/06/20 13:56:05;;;;;;;1.67;1.58;;;;;;;14.71;100.00;96291.97;10475481;28;20215;-53
2022/06/20 14:01:10;;;;;;;1.50;1.40;;;;;;;14.88;100.00;96305.69;10491398;28;20195;-55
2022/06/20 14:06:14;;;;;;;1.55;1.45;;;;;;;14.81;100.00;96304.84;10475033;28;20262;-54
2022/06/20 14:11:30;;;;;;;1.73;1.08;;;;;;;14.94;100.00;96297.00;10492457;28;20717;-57
2022/06/20 14:16:37;;;;;;;0.70;0.70;;;;;;;15.00;100.00;96305.16;10484376;28;20210;-56
2022/06/20 14:21:39;;;;;;;1.25;0.90;;;;;;;14.96;100.00;96297.63;10492305;28;20555;-55
2022/06/20 14:26:39;;;;;;;0.60;0.60;;;;;;;14.46;100.00;96294.22;10474148;28;20207;-57
2022/06/20 14:31:51;;;;;;;0.60;0.60;;;;;;;14.22;100.00;96327.06;10490301;28;20219;-57
2022/06/20 14:37:00;;;;;;;2.03;1.83;;;;;;;13.82;100.00;96321.41;10472985;28;20215;-58
2022/06/20 14:42:08;;;;;;;2.22;1.70;;;;;;;13.22;100.00;96331.19;10474390;28;20270;-59
2022/06/20 14:47:34;;;;;;;0.75;0.70;;;;;;;13.24;100.00;96310.78;10490752;28;20701;-58
2022/06/20 14:52:49;;;;;;;0.88;0.85;;;;;;;13.19;100.00;96313.97;10465825;28;20195;-57
2022/06/20 14:58:00;;;;;;;0.50;0.50;;;;;;;13.50;100.00;96303.22;10472595;28;20258;-55
2022/06/20 15:03:15;;;;;;;1.23;0.60;;;;;;;13.67;100.00;96314.34;10471235;28;20615;-54
2022/06/20 15:08:22;;;;;;;0.40;0.40;;;;;;;13.47;100.00;96282.53;10472468;28;20218;-52
2022/06/20 15:13:47;;;;;;;1.25;0.45;;;;;;;13.65;100.00;96273.44;10472499;28;20195;-53
2022/06/20 15:18:50;;;;;;;0.40;0.40;;;;;;;13.83;100.00;96260.66;10489836;28;20336;-52
2022/06/20 15:24:13;;;;;;;0.40;0.40;;;;;;;14.00;100.00;96223.53;10472556;28;20210;-53
2022/06/20 15:29:18;;;;;;;0.40;0.40;;;;;;;14.16;100.00;96220.59;10489729;28;20226;-55
2022/06/20 15:34:32;;;;;;;0.43;0.40;;;;;;;14.02;100.00;96234.69;10470766;28;20725;-53
2022/06/20 15:39:46;;;;;;;0.40;0.40;;;;;;;14.02;100.00;96253.94;10464050;28;20179;-57
2022/06/20 15:44:53;;;;;;;0.40;0.40;;;;;;;14.08;100.00;96279.50;10471317;28;20214;-55
2022/06/20 15:49:56;;;;;;;0.70;0.70;;;;;;;13.43;100.00;96306.78;10470458;28;20258;-57
2022/06/20 15:55:23;;;;;;;1.95;1.85;;;;;;;12.83;100.00;96333.91;10489273;28;20616;-57
2022/06/20 16:00:39;;;;;;;1.88;1.77;;;;;;;12.54;100.00;96326.81;10467590;28;20199;-57
2022/06/20 16:05:50;;;;;;;1.80;1.70;;;;;;;12.13;100.00;96327.94;10423598;28;20250;-55
2022/06/20 16:10:54;;;;;;;1.17;1.08;;;;;;;11.52;100.00;96316.50;10488653;28;20222;-54
2022/06/20 16:16:04;;;;;;;0.90;0.90;;;;;;;11.85;100.00;96332.03;10488801;28;20219;-55
2022/06/20 16:21:06;;;;;;;4.93;1.60;;;;;;;12.01;100.00;96318.03;10484810;28;20291;-54
2022/06/20 16:26:28;;;;;;;1.37;1.23;;;;;;;11.84;100.00;96317.28;10446295;28;20207;-52
2022/06/20 16:31:30;;;;;;;2.60;1.27;;;;;;;11.81;100.00;96318.47;10464157;28;20216;-56
2022/06/20 16:36:33;;;;;;;3.63;1.20;;;;;;;11.46;100.00;96338.97;10477269;28;20218;-55
2022/06/20 16:41:46;;;;;;;3.10;1.30;;;;;;;11.34;100.00;96333.28;10487609;28;20221;-55
2022/06/20 16:46:59;;;;;;;1.60;1.10;;;;;;;11.43;100.00;96316.53;10486197;28;20246;-55
2022/06/20 16:52:26;;;;;;;2.27;1.20;;;;;;;11.41;100.00;96315.88;10487482;28;20642;-53
2022/06/20 16:57:37;;;;;;;1.97;1.20;;;;;;;11.60;100.00;96325.13;10467059;28;20648;-52
2022/06/20 17:03:05;;;;;;;3.33;1.38;;;;;;;11.75;100.00;96325.22;10489998;28;20203;-54
2022/06/20 17:08:20;;;;;;;2.03;1.60;;;;;;;11.55;100.00;96305.66;10493649;28;20223;-53
2022/06/20 17:13:41;;;;;;;1.70;1.40;;;;;;;11.39;100.00;96306.53;10478360;28;20684;-49
2022/06/20 17:19:03;;;;;;;2.97;1.50;;;;;;;11.30;100.00;96297.09;10477899;28;20193;-49
2022/06/20 17:24:25;;;;;;;1.93;1.70;;;;;;;11.91;100.00;96313.81;10495821;28;20612;-50
2022/06/20 17:30:02;;;;;;;1.70;1.60;;;;;;;12.08;100.00;96300.56;10495858;28;20218;-53
2022/06/20 17:35:19;;;;;;;1.90;1.80;;;;;;;12.63;100.00;96293.34;10477010;28;20280;-53
2022/06/20 17:40:23;;;;;;;1.45;1.30;;;;;;;12.87;100.00;96281.78;10477812;28;20192;-57
2022/06/20 17:45:50;;;;;;;1.73;1.20;;;;;;;12.64;100.00;96300.25;10494785;28;20211;-56
2022/06/20 17:51:01;;;;;;;1.55;1.33;;;;;;;12.17;100.00;96301.34;10494949;28;20299;-55
2022/06/20 17:56:25;;;;;;;3.55;1.50;;;;;;;11.68;100.00;96308.50;10476487;28;20203;-57
2022/06/20 18:01:32;;;;;;;1.80;1.45;;;;;;;11.88;100.00;96308.06;10476429;28;20187;-56
2022/06/20 18:06:37;;;;;;;2.33;1.50;;;;;;;11.66;100.00;96307.88;10476171;28;20227;-54
2022/06/20 18:12:07;;;;;;;3.03;2.00;;;;;;;11.48;100.00;96312.56;10493614;28;20723;-51
2022/06/20 18:17:20;;;;;;;1.23;1.23;;;;;;;11.29;100.00;96305.97;10475890;28;20687;-55
2022/06/20 18:22:42;;;;;;;1.60;1.50;;;;;;;11.07;100.00;96309.16;10475927;28;20197;-56
2022/06/20 18:27:58;;;;;;;3.40;1.60;;;;;;;11.13;100.00;96310.25;10492902;28;20225;-55
2022/06/20 18:33:00;;;;;;;1.60;1.50;;;;;;;10.91;100.00;96322.31;10492440;28;20186;-56
2022/06/20 18:38:09;;;;;;;4.43;1.70;;;;;;;10.77;100.00;96315.94;10474777;28;20208;-55
2022/06/20 18:43:12;;;;;;;2.10;1.90;;;;;;;10.62;100.00;96335.97;10492547;28;20205;-56
2022/06/20 18:48:30;;;;;;;3.20;1.90;;;;;;;10.68;100.00;96330.06;10491585;28;20731;-58
2022/06/20 18:53:41;;;;;;;2.17;2.00;;;;;;;10.53;100.00;96335.97;10491953;28;20669;-55
2022/06/20 18:59:00;;;;;;;2.30;2.00;;;;;;;10.55;100.00;96335.81;10491304;28;20725;-54
2022/06/20 19:04:38;;;;;;;3.13;1.83;;;;;;;10.49;100.00;96339.91;10473472;28;20322;-51
2022/06/20 19:09:41;;;;;;;2.60;2.00;;;;;;;10.41;100.00;96342.50;10491695;28;20223;-56
2022/06/20 19:15:03;;;;;;;4.10;2.17;;;;;;;10.38;100.00;96355.13;10491492;28;20306;-52
2022/06/20 19:20:33;;;;;;;2.83;2.10;;;;;;;10.30;100.00;96366.38;10473708;28;20184;-52
2022/06/20 19:25:44;;;;;;;6.10;2.30;;;;;;;10.20;100.00;96369.16;10490093;28;20306;-56
2022/06/20 19:30:49;;;;;;;4.13;2.70;;;;;;;10.12;100.00;96371.75;10491207;28;20720;-58
2022/06/20 19:35:52;;;;;;;4.27;2.83;;;;;;;10.03;100.00;96373.56;10473192;28;20596;-54
2022/06/20 19:41:01;;;;;;;4.63;3.43;;;;;;;10.08;100.00;96378.31;10473035;28;20190;-55
2022/06/20 19:46:03;;;;;;;5.30;3.53;;;;;;;10.00;100.00;96366.84;10490640;28;20215;-56
2022/06/20 19:51:35;;;;;;;5.63;3.97;;;;;;;9.97;100.00;96371.59;10490619;28;20624;-50
2022/06/20 19:57:06;;;;;;;4.80;3.50;;;;;;;9.97;100.00;96374.22;10490148;28;20219;-55
2022/06/20 20:02:18;;;;;;;9.60;4.13;;;;;;;9.95;100.00;96381.38;10490603;28;20199;-55
2022/06/20 20:07:29;;;;;;;7.00;4.37;;;;;;;9.91;100.00;96382.72;10489808;28;20239;-52
2022/06/20 20:12:30;;;;;;;7.43;3.80;;;;;;;9.92;100.00;96394.78;10480983;23;20300;-57
2022/06/20 20:17:32;;;;;;;5.30;4.13;;;;;;;9.91;100.00;96396.59;10472246;28;20719;-56
2022/06/20 20:22:41;;;;;;;4.00;3.60;;;;;;;9.82;100.00;96397.56;10490107;28;20570;-53
2022/06/20 20:27:54;;;;;;;4.27;3.40;;;;;;;9.76;100.00;96399.00;10489914;28;20223;-56
2022/06/20 20:33:03;;;;;;;4.57;3.37;;;;;;;9.72;100.00;96404.72;10489803;28;20211;-55
2022/06/20 20:38:32;;;;;;;4.87;3.50;;;;;;;9.68;100.00;96414.69;10495831;28;20175;-54
2022/06/20 20:44:00;;;;;;;7.43;4.03;;;;;;;9.66;100.00;96406.16;10441263;28;20210;-56
2022/06/20 20:49:04;;;;;;;5.17;3.40;;;;;;;9.61;100.00;96406.63;10433700;28;20208;-56
2022/06/20 20:54:10;;;;;;;5.30;3.80;;;;;;;9.62;100.00;96403.06;10380846;28;20193;-59
2022/06/20 20:59:22;;;;;;;8.40;3.50;;;;;;;9.60;100.00;96414.63;10414513;28;20204;-58
2022/06/20 21:04:29;;;;;;;4.37;3.60;;;;;;;9.61;100.00;96413.66;10414687;28;20188;-56
2022/06/20 21:10:09;;;;;;;6.67;3.47;;;;;;;9.53;100.00;96411.03;10396663;28;20718;-54
2022/06/20 21:15:21;;;;;;;6.93;3.30;;;;;;;9.57;100.00;96420.19;10357652;28;20208;-57
2022/06/20 21:20:22;;;;;;;5.77;3.67;;;;;;;9.55;100.00;96409.88;10413905;28;20701;-58
2022/06/20 21:25:24;;;;;;;5.67;3.47;;;;;;;9.59;100.00;96420.88;10396264;28;20268;-53
2022/06/20 21:30:26;;;;;;;4.97;3.67;;;;;;;9.58;100.00;96422.63;10413555;28;20755;-57
2022/06/20 21:35:27;;;;;;;5.87;3.53;;;;;;;9.61;100.00;96424.13;10413391;28;20200;-58
2022/06/20 21:40:30;;;;;;;5.63;3.90;;;;;;;9.68;100.00;96416.47;10395538;28;20221;-57
2022/06/20 21:45:43;;;;;;;10.87;4.30;;;;;;;9.73;100.00;96427.28;10408713;28;20195;-53
2022/06/20 21:51:10;;;;;;;7.83;3.77;;;;;;;9.68;100.00;96426.94;10454389;28;20200;-58
2022/06/20 21:56:31;;;;;;;3.73;3.43;;;;;;;9.75;100.00;96422.72;10454268;28;20658;-55
2022/06/20 22:06:58;;;;;;;5.23;3.77;;;;;;;9.66;100.00;96436.72;10453719;28;20188;-56
2022/06/20 22:12:00;;;;;;;7.00;3.90;;;;;;;9.73;100.00;96438.56;10435355;28;20250;-56
2022/06/20 22:17:02;;;;;;;9.03;3.80;;;;;;;9.85;100.00;96436.47;10453207;28;20199;-58
2022/06/20 22:22:13;;;;;;;8.63;4.40;;;;;;;9.92;100.00;96440.13;10435290;28;20631;-56
2022/06/20 22:27:13;;;;;;;9.13;4.17;;;;;;;9.88;100.00;96438.78;10452915;28;20204;-53
2022/06/20 22:32:17;;;;;;;8.03;4.10;;;;;;;9.91;100.00;96435.03;10452518;28;20211;-57
2022/06/20 22:37:24;;;;;;;9.40;4.00;;;;;;;9.89;100.00;96431.75;10434498;28;20249;-52
2022/06/20 22:42:30;;;;;;;11.03;4.17;;;;;;;9.90;100.00;96428.97;10452231;28;20219;-54
2022/06/20 22:47:30;;;;;;;7.33;4.10;;;;;;;10.03;100.00;96431.16;10452174;28;20275;-53
2022/06/20 22:52:39;;;;;;;6.47;4.00;;;;;;;10.02;100.00;96437.34;10451535;28;20222;-52
2022/06/20 22:57:48;;;;;;;7.73;4.20;;;;;;;9.96;100.00;96438.78;10433798;28;20207;-58
2022/06/20 23:02:49;;;;;;;8.93;3.87;;;;;;;9.93;100.00;96460.03;10433946;28;20244;-54
2022/06/20 23:07:49;;;;;;;8.23;3.97;;;;;;;10.00;100.00;96455.81;10451162;28;20772;-56
2022/06/20 23:12:52;;;;;;;8.73;4.10;;;;;;;9.93;100.00;96460.03;10449480;28;20744;-52
2022/06/20 23:23:13;;;;;;;7.90;4.50;;;;;;;9.88;100.00;96458.91;10449033;28;20211;-55
2022/06/20 23:28:13;;;;;;;12.40;4.33;;;;;;;9.80;100.00;96462.28;10448963;28;20187;-55
2022/06/20 23:33:13;;;;;;;8.53;4.13;;;;;;;9.74;100.00;96460.28;10448847;28;20226;-56
2022/06/20 23:38:19;;;;;;;6.30;5.03;;;;;;;9.69;100.00;96458.16;10448470;28;20254;-51
2022/06/20 23:43:27;;;;;;;11.57;4.73;;;;;;;9.76;100.00;96453.13;10431254;28;20207;-56
2022/06/20 23:48:33;;;;;;;6.63;4.67;;;;;;;9.69;100.00;96457.34;10448410;28;20241;-53
2022/06/20 23:53:33;;;;;;;11.37;5.80;;;;;;;9.81;100.00;96451.66;10448312;28;20219;-55
2022/06/20 23:58:40;;;;;;;7.00;5.30;;;;;;;9.85;100.00;96462.66;10447893;28;20277;-56
